Time;durP1;ratioP1;P1;durP2;ratioP2;P2;SDS_P1;SDS_P2;PMS_P1;PMS_P2;Temp;Humidity;BMP_temperature;BMP_pressure;BME280_temperature;BME280_humidity;BME280_pressure;Samples;Min_cycle;Max_cycle;Signal;HPM_P1;HPM_P2
2021/06/19 00:01:43;;;;;;;34.65;30.98;;;;;;;;;;4998529;28;20210;-67
2021/06/19 00:04:09;;;;;;;33.97;30.45;;;;;;;;;;4998261;28;20183;-67
2021/06/19 00:06:34;;;;;;;35.58;31.58;;;;;;;;;;5005744;28;20191;-67
2021/06/19 00:09:00;;;;;;;34.95;29.67;;;;;;;;;;4988694;28;20612;-67
2021/06/19 00:11:25;;;;;;;33.53;29.98;;;;;;;;;;5005244;28;20533;-67
2021/06/19 00:13:50;;;;;;;33.03;29.65;;;;;;;;;;5000818;28;20530;-67
2021/06/19 00:16:16;;;;;;;36.15;31.17;;;;;;;;;;5003668;28;20193;-67
2021/06/19 00:18:41;;;;;;;38.28;32.80;;;;;;;;;;5005961;28;20987;-67
2021/06/19 00:21:07;;;;;;;38.88;33.75;;;;;;;;;;5003430;28;20187;-67
2021/06/19 00:23:32;;;;;;;40.47;36.22;;;;;;;;;;5010072;28;20190;-67
2021/06/19 00:25:58;;;;;;;39.03;34.83;;;;;;;;;;4999663;28;20187;-67
2021/06/19 00:28:23;;;;;;;38.08;33.60;;;;;;;;;;5009391;28;20213;-67
2021/06/19 00:30:50;;;;;;;41.05;35.65;;;;;;;;;;5000120;28;20211;-67
2021/06/19 00:33:15;;;;;;;38.88;34.72;;;;;;;;;;5002213;28;20190;-67
2021/06/19 00:35:40;;;;;;;42.30;35.95;;;;;;;;;;4996634;28;20237;-67
2021/06/19 00:38:06;;;;;;;43.10;36.42;;;;;;;;;;5013016;28;20193;-67
2021/06/19 00:40:31;;;;;;;38.40;34.30;;;;;;;;;;5001892;28;20206;-68
2021/06/19 00:43:02;;;;;;;41.25;36.28;;;;;;;;;;5006612;28;20179;-67
2021/06/19 00:45:29;;;;;;;40.65;34.38;;;;;;;;;;4990031;28;20205;-67
2021/06/19 00:47:55;;;;;;;39.35;34.97;;;;;;;;;;5004485;28;20305;-67
2021/06/19 00:50:21;;;;;;;37.83;33.72;;;;;;;;;;5002015;28;20182;-67
2021/06/19 00:52:48;;;;;;;47.00;35.33;;;;;;;;;;5004881;28;20199;-67
2021/06/19 00:55:13;;;;;;;41.97;36.88;;;;;;;;;;5008583;28;20190;-67
2021/06/19 00:57:39;;;;;;;41.30;34.85;;;;;;;;;;4999546;28;20195;-67
2021/06/19 01:00:08;;;;;;;39.85;34.33;;;;;;;;;;5005523;28;20274;-67
2021/06/19 01:02:33;;;;;;;45.45;36.13;;;;;;;;;;5001790;28;20724;-67
2021/06/19 01:04:59;;;;;;;44.97;35.33;;;;;;;;;;5006428;28;20195;-67
2021/06/19 01:07:24;;;;;;;38.03;33.95;;;;;;;;;;5001485;28;20195;-68
2021/06/19 01:09:49;;;;;;;37.33;32.47;;;;;;;;;;5006622;28;20191;-68
2021/06/19 01:12:24;;;;;;;37.80;33.70;;;;;;;;;;4998250;28;20708;-67
2021/06/19 01:14:54;;;;;;;41.65;35.50;;;;;;;;;;5005371;28;20201;-67
2021/06/19 01:17:20;;;;;;;35.10;31.25;;;;;;;;;;4994094;28;21131;-67
2021/06/19 01:19:57;;;;;;;43.00;37.15;;;;;;;;;;5004794;28;20210;-67
2021/06/19 01:22:23;;;;;;;38.92;34.72;;;;;;;;;;4997124;28;20584;-67
2021/06/19 01:24:50;;;;;;;43.63;36.47;;;;;;;;;;5007124;28;20191;-67
2021/06/19 01:27:16;;;;;;;39.33;33.35;;;;;;;;;;4994555;28;20207;-67
2021/06/19 01:29:41;;;;;;;37.25;32.85;;;;;;;;;;5008496;28;20222;-67
2021/06/19 01:32:07;;;;;;;43.47;36.85;;;;;;;;;;5007309;28;20469;-67
2021/06/19 01:34:32;;;;;;;40.55;34.80;;;;;;;;;;5003546;28;20186;-67
2021/06/19 01:36:57;;;;;;;40.88;36.60;;;;;;;;;;5005993;28;20183;-68
2021/06/19 01:39:23;;;;;;;44.85;36.28;;;;;;;;;;4999614;28;20240;-67
2021/06/19 01:41:48;;;;;;;37.30;33.33;;;;;;;;;;5005435;28;20226;-68
2021/06/19 01:44:14;;;;;;;44.28;34.45;;;;;;;;;;4994959;28;20658;-68
2021/06/19 01:46:41;;;;;;;41.60;35.92;;;;;;;;;;5005191;28;20186;-67
2021/06/19 01:49:07;;;;;;;39.08;34.90;;;;;;;;;;4995203;28;20296;-67
2021/06/19 01:51:32;;;;;;;39.42;33.00;;;;;;;;;;5005982;28;20194;-67
2021/06/19 01:53:58;;;;;;;41.40;35.20;;;;;;;;;;4998645;28;20202;-68
2021/06/19 01:56:24;;;;;;;40.55;33.67;;;;;;;;;;5002779;28;20249;-68
2021/06/19 01:58:50;;;;;;;48.15;37.38;;;;;;;;;;5001261;28;20207;-68
2021/06/19 02:01:16;;;;;;;41.90;35.35;;;;;;;;;;5001614;28;20210;-68
2021/06/19 02:03:43;;;;;;;43.72;37.88;;;;;;;;;;5008452;28;20259;-67
2021/06/19 02:06:09;;;;;;;45.35;39.63;;;;;;;;;;4995413;28;20197;-68
2021/06/19 02:08:35;;;;;;;48.90;40.70;;;;;;;;;;5002814;28;20218;-67
2021/06/19 02:11:02;;;;;;;50.42;42.75;;;;;;;;;;4994547;28;20190;-68
2021/06/19 02:13:27;;;;;;;42.92;37.42;;;;;;;;;;5005530;28;20182;-67
2021/06/19 02:15:54;;;;;;;40.65;36.20;;;;;;;;;;4995045;28;20187;-69
2021/06/19 02:18:20;;;;;;;45.22;38.13;;;;;;;;;;5006491;28;20179;-70
2021/06/19 02:20:51;;;;;;;45.80;37.00;;;;;;;;;;4993216;28;20662;-68
2021/06/19 02:23:17;;;;;;;41.70;35.50;;;;;;;;;;5002226;28;20265;-68
2021/06/19 02:25:43;;;;;;;42.10;37.47;;;;;;;;;;4996671;28;20221;-68
2021/06/19 02:28:10;;;;;;;43.20;37.33;;;;;;;;;;5008003;28;20279;-68
2021/06/19 02:30:39;;;;;;;44.55;36.08;;;;;;;;;;4993317;28;20537;-68
2021/06/19 02:33:05;;;;;;;39.45;34.00;;;;;;;;;;5000405;28;20244;-68
2021/06/19 02:35:34;;;;;;;35.50;31.48;;;;;;;;;;5001235;28;20275;-69
2021/06/19 02:37:59;;;;;;;31.92;28.20;;;;;;;;;;4993745;28;20190;-70
2021/06/19 02:40:25;;;;;;;34.42;27.55;;;;;;;;;;5000150;28;20204;-70
2021/06/19 02:42:51;;;;;;;35.45;28.38;;;;;;;;;;4990414;28;20186;-70
2021/06/19 02:45:16;;;;;;;35.60;28.38;;;;;;;;;;5004880;28;20190;-70
2021/06/19 02:47:44;;;;;;;28.63;25.50;;;;;;;;;;4995674;28;20352;-70
2021/06/19 02:50:11;;;;;;;26.20;23.15;;;;;;;;;;4998927;28;20180;-70
2021/06/19 02:52:41;;;;;;;23.17;20.20;;;;;;;;;;4994321;28;20191;-69
2021/06/19 02:55:18;;;;;;;23.98;21.15;;;;;;;;;;5001332;28;20554;-71
2021/06/19 02:57:44;;;;;;;18.67;16.27;;;;;;;;;;4993184;28;20259;-72
2021/06/19 03:00:12;;;;;;;19.40;17.35;;;;;;;;;;5003302;28;20589;-70
2021/06/19 03:02:38;;;;;;;20.00;16.55;;;;;;;;;;4994810;28;20244;-68
2021/06/19 03:05:05;;;;;;;18.80;16.73;;;;;;;;;;4998770;28;20194;-71
2021/06/19 03:07:31;;;;;;;21.15;16.17;;;;;;;;;;4992047;28;20193;-70
2021/06/19 03:09:56;;;;;;;19.80;15.25;;;;;;;;;;5000683;28;20542;-71
2021/06/19 03:12:22;;;;;;;17.70;15.80;;;;;;;;;;5001322;28;20179;-71
2021/06/19 03:14:50;;;;;;;19.83;16.48;;;;;;;;;;4997554;28;20254;-71
2021/06/19 03:17:16;;;;;;;21.90;16.85;;;;;;;;;;5000577;28;20179;-71
2021/06/19 03:19:41;;;;;;;23.85;18.45;;;;;;;;;;4993375;28;20690;-71
2021/06/19 03:22:07;;;;;;;17.92;16.02;;;;;;;;;;4998067;28;20647;-72
2021/06/19 03:24:44;;;;;;;20.80;17.41;;;;;;;;;;4646610;28;10002758;-70
2021/06/19 03:27:11;;;;;;;20.00;16.23;;;;;;;;;;4999481;28;20558;-71
2021/06/19 03:29:37;;;;;;;20.00;16.00;;;;;;;;;;4995417;28;20197;-68
2021/06/19 03:32:03;;;;;;;17.20;13.30;;;;;;;;;;4998377;28;20190;-70
2021/06/19 03:34:29;;;;;;;14.18;12.63;;;;;;;;;;4991490;28;20199;-71
2021/06/19 03:37:01;;;;;;;13.02;11.45;;;;;;;;;;4997319;28;20201;-70
2021/06/19 03:39:31;;;;;;;13.77;12.15;;;;;;;;;;4988304;28;20214;-71
2021/06/19 03:41:56;;;;;;;12.00;10.82;;;;;;;;;;5003172;28;20237;-70
2021/06/19 03:44:23;;;;;;;14.68;12.30;;;;;;;;;;4991328;28;20186;-71
2021/06/19 03:46:49;;;;;;;13.82;12.35;;;;;;;;;;5004262;28;20542;-69
2021/06/19 03:49:15;;;;;;;14.68;12.55;;;;;;;;;;4997394;28;20231;-71
2021/06/19 03:51:41;;;;;;;14.85;12.15;;;;;;;;;;4991333;28;20544;-70
2021/06/19 03:54:06;;;;;;;13.60;11.68;;;;;;;;;;4996181;28;20281;-70
2021/06/19 03:56:32;;;;;;;14.55;12.10;;;;;;;;;;4989588;28;20207;-71
2021/06/19 03:58:57;;;;;;;13.98;11.88;;;;;;;;;;4995393;28;20206;-70
2021/06/19 04:01:22;;;;;;;15.18;11.23;;;;;;;;;;4989057;28;20583;-70
2021/06/19 04:03:48;;;;;;;13.00;11.70;;;;;;;;;;4996974;28;20650;-71
2021/06/19 04:06:13;;;;;;;12.70;11.05;;;;;;;;;;4987307;28;20290;-69
2021/06/19 04:08:38;;;;;;;12.38;11.00;;;;;;;;;;4997286;28;20191;-70
2021/06/19 04:11:04;;;;;;;14.48;12.02;;;;;;;;;;5004719;28;20238;-70
2021/06/19 04:13:29;;;;;;;13.98;12.20;;;;;;;;;;4995298;28;20194;-70
2021/06/19 04:15:54;;;;;;;15.80;12.18;;;;;;;;;;4994176;28;20183;-70
2021/06/19 04:18:20;;;;;;;16.60;10.27;;;;;;;;;;4994011;28;20755;-71
2021/06/19 04:20:45;;;;;;;12.38;11.02;;;;;;;;;;5001262;28;20205;-71
2021/06/19 04:23:11;;;;;;;16.15;10.52;;;;;;;;;;4991825;28;20546;-70
2021/06/19 04:25:36;;;;;;;10.75;9.65;;;;;;;;;;5000374;28;21211;-71
2021/06/19 04:28:02;;;;;;;10.73;9.63;;;;;;;;;;4989437;28;20211;-71
2021/06/19 04:30:27;;;;;;;11.07;9.98;;;;;;;;;;5001281;28;20186;-68
2021/06/19 04:32:54;;;;;;;12.38;9.73;;;;;;;;;;4986927;28;20191;-70
2021/06/19 04:35:21;;;;;;;10.57;9.50;;;;;;;;;;4998599;28;20282;-68
2021/06/19 04:37:47;;;;;;;12.40;11.10;;;;;;;;;;4991727;28;20249;-69
2021/06/19 04:40:18;;;;;;;11.88;10.55;;;;;;;;;;5001209;28;20203;-70
2021/06/19 04:42:46;;;;;;;12.15;9.32;;;;;;;;;;4989805;28;20735;-69
2021/06/19 04:45:13;;;;;;;11.05;9.65;;;;;;;;;;5000658;28;20179;-70
2021/06/19 04:47:39;;;;;;;10.18;9.27;;;;;;;;;;4989705;28;20701;-70
2021/06/19 04:50:07;;;;;;;9.45;8.40;;;;;;;;;;4999132;28;20187;-71
2021/06/19 04:52:35;;;;;;;10.40;9.02;;;;;;;;;;5000369;28;20223;-69
2021/06/19 04:55:02;;;;;;;11.00;8.02;;;;;;;;;;4990738;28;20191;-68
2021/06/19 04:57:28;;;;;;;7.85;7.00;;;;;;;;;;4997137;28;20550;-69
2021/06/19 04:59:56;;;;;;;6.60;5.93;;;;;;;;;;4991886;28;20207;-68
2021/06/19 05:02:21;;;;;;;7.82;7.03;;;;;;;;;;4997174;28;20258;-69
2021/06/19 05:04:47;;;;;;;9.70;6.97;;;;;;;;;;4995909;28;20599;-69
2021/06/19 05:07:12;;;;;;;8.75;6.90;;;;;;;;;;5002483;28;20179;-70
2021/06/19 05:09:39;;;;;;;9.48;7.40;;;;;;;;;;4996192;28;20188;-69
2021/06/19 05:12:05;;;;;;;7.47;6.78;;;;;;;;;;4999208;28;20195;-69
2021/06/19 05:14:30;;;;;;;9.45;7.10;;;;;;;;;;4993713;28;20260;-69
2021/06/19 05:16:56;;;;;;;9.13;7.40;;;;;;;;;;4996787;28;20183;-68
2021/06/19 05:19:21;;;;;;;8.68;7.80;;;;;;;;;;4995399;28;20217;-70
2021/06/19 05:21:46;;;;;;;10.30;8.13;;;;;;;;;;5004657;28;20186;-69
2021/06/19 05:24:13;;;;;;;8.98;7.93;;;;;;;;;;5003756;28;20186;-70
2021/06/19 05:26:39;;;;;;;8.93;7.97;;;;;;;;;;4990574;28;20738;-67
2021/06/19 05:29:05;;;;;;;8.65;7.90;;;;;;;;;;5000604;28;20695;-69
2021/06/19 05:31:30;;;;;;;8.82;7.95;;;;;;;;;;4998578;28;20277;-68
2021/06/19 05:33:56;;;;;;;8.77;7.88;;;;;;;;;;5007390;28;20186;-69
2021/06/19 05:36:21;;;;;;;9.00;7.78;;;;;;;;;;4992487;28;20211;-67
2021/06/19 05:38:47;;;;;;;9.07;7.60;;;;;;;;;;5004342;28;20308;-67
2021/06/19 05:41:12;;;;;;;10.52;8.45;;;;;;;;;;4988817;28;20330;-67
2021/06/19 05:43:38;;;;;;;10.65;8.63;;;;;;;;;;4996396;28;20637;-71
2021/06/19 05:46:03;;;;;;;10.60;8.48;;;;;;;;;;4988978;28;20192;-67
2021/06/19 05:48:29;;;;;;;10.63;8.65;;;;;;;;;;4997047;28;20234;-68
2021/06/19 05:50:54;;;;;;;11.13;7.72;;;;;;;;;;4996748;28;20225;-67
2021/06/19 05:53:19;;;;;;;9.27;8.30;;;;;;;;;;4996257;28;20284;-68
2021/06/19 05:55:45;;;;;;;8.70;7.90;;;;;;;;;;4998679;28;20186;-67
2021/06/19 05:58:11;;;;;;;9.75;8.75;;;;;;;;;;4990033;28;20193;-68
2021/06/19 06:00:37;;;;;;;12.70;8.52;;;;;;;;;;4996374;28;20207;-67
2021/06/19 06:03:03;;;;;;;9.50;7.88;;;;;;;;;;4988343;28;20226;-67
2021/06/19 06:05:28;;;;;;;12.20;8.73;;;;;;;;;;5000761;28;20579;-68
2021/06/19 06:07:55;;;;;;;11.18;7.70;;;;;;;;;;4991305;28;20271;-70
2021/06/19 06:10:20;;;;;;;9.38;7.80;;;;;;;;;;5004816;28;20179;-68
2021/06/19 06:12:46;;;;;;;9.30;8.18;;;;;;;;;;4993872;28;20222;-67
2021/06/19 06:15:11;;;;;;;9.82;8.30;;;;;;;;;;5001883;28;20186;-67
2021/06/19 06:17:37;;;;;;;9.93;8.00;;;;;;;;;;4992910;28;20577;-67
2021/06/19 06:20:04;;;;;;;9.90;7.80;;;;;;;;;;5000656;28;20218;-68
2021/06/19 06:22:29;;;;;;;10.40;8.55;;;;;;;;;;4994511;28;20202;-71
2021/06/19 06:24:54;;;;;;;8.50;7.70;;;;;;;;;;4995312;28;20229;-67
2021/06/19 06:27:20;;;;;;;8.93;8.18;;;;;;;;;;4994891;28;20241;-68
2021/06/19 06:29:45;;;;;;;10.07;8.75;;;;;;;;;;4993491;28;20191;-67
2021/06/19 06:32:10;;;;;;;10.60;9.00;;;;;;;;;;5001441;28;20267;-67
2021/06/19 06:34:36;;;;;;;9.70;8.80;;;;;;;;;;4995608;28;20183;-70
2021/06/19 06:37:01;;;;;;;9.75;8.80;;;;;;;;;;5004617;28;20231;-69
2021/06/19 06:39:27;;;;;;;10.73;9.18;;;;;;;;;;4993059;28;20299;-70
2021/06/19 06:41:52;;;;;;;9.60;8.70;;;;;;;;;;5004596;28;20182;-68
2021/06/19 06:44:17;;;;;;;10.43;9.35;;;;;;;;;;4995683;28;20201;-68
2021/06/19 06:46:43;;;;;;;10.65;9.68;;;;;;;;;;5008976;28;20179;-67
2021/06/19 06:49:08;;;;;;;10.07;9.18;;;;;;;;;;4995161;28;20710;-67
2021/06/19 06:51:37;;;;;;;10.90;9.88;;;;;;;;;;5004838;28;20189;-67
2021/06/19 06:54:02;;;;;;;10.25;9.35;;;;;;;;;;4999858;28;20190;-67
2021/06/19 06:56:27;;;;;;;12.20;9.77;;;;;;;;;;5004496;28;20673;-67
2021/06/19 06:58:53;;;;;;;11.88;10.80;;;;;;;;;;5005370;28;20192;-67
2021/06/19 07:01:18;;;;;;;11.13;10.05;;;;;;;;;;5011991;28;20289;-68
2021/06/19 07:03:44;;;;;;;11.30;10.30;;;;;;;;;;5003476;28;20182;-69
2021/06/19 07:06:09;;;;;;;10.68;9.65;;;;;;;;;;4995021;28;20277;-67
2021/06/19 07:08:34;;;;;;;11.75;10.43;;;;;;;;;;5002165;28;20273;-68
2021/06/19 07:11:00;;;;;;;11.23;10.07;;;;;;;;;;4993673;28;20179;-68
2021/06/19 07:13:25;;;;;;;11.65;10.55;;;;;;;;;;5002572;28;20199;-68
2021/06/19 07:15:50;;;;;;;10.85;9.82;;;;;;;;;;4996230;28;20191;-67
2021/06/19 07:18:16;;;;;;;10.70;9.70;;;;;;;;;;5001087;28;20201;-69
2021/06/19 07:20:41;;;;;;;10.88;9.77;;;;;;;;;;4995151;28;21521;-69
2021/06/19 07:23:07;;;;;;;10.93;9.90;;;;;;;;;;5000482;28;20623;-70
2021/06/19 07:25:32;;;;;;;10.68;9.63;;;;;;;;;;5003869;28;20533;-67
2021/06/19 07:27:59;;;;;;;11.57;10.48;;;;;;;;;;4992935;28;20643;-70
2021/06/19 07:30:26;;;;;;;11.10;10.10;;;;;;;;;;5001103;28;20553;-68
2021/06/19 07:32:53;;;;;;;12.18;10.98;;;;;;;;;;4994560;28;20280;-67
2021/06/19 07:35:18;;;;;;;14.52;11.35;;;;;;;;;;5001130;28;20249;-67
2021/06/19 07:37:44;;;;;;;13.00;11.80;;;;;;;;;;4992345;28;20194;-67
2021/06/19 07:40:11;;;;;;;13.50;12.30;;;;;;;;;;5002746;28;20700;-68
2021/06/19 07:42:36;;;;;;;12.32;11.23;;;;;;;;;;4993631;28;20662;-67
2021/06/19 07:45:03;;;;;;;14.02;12.82;;;;;;;;;;4999733;28;20199;-68
2021/06/19 07:47:29;;;;;;;14.15;12.68;;;;;;;;;;4990082;28;20313;-68
2021/06/19 07:49:54;;;;;;;13.60;12.20;;;;;;;;;;4998870;28;20309;-68
2021/06/19 07:52:20;;;;;;;13.73;12.35;;;;;;;;;;4991703;28;21952;-67
2021/06/19 07:54:45;;;;;;;13.88;11.30;;;;;;;;;;5004323;28;20643;-68
2021/06/19 07:57:11;;;;;;;12.20;11.20;;;;;;;;;;4996022;28;20189;-67
2021/06/19 07:59:37;;;;;;;13.18;11.27;;;;;;;;;;4998081;28;20210;-70
2021/06/19 08:02:03;;;;;;;11.68;10.45;;;;;;;;;;5004490;28;20217;-67
2021/06/19 08:04:28;;;;;;;11.27;10.27;;;;;;;;;;4995203;28;20199;-67
2021/06/19 08:06:54;;;;;;;9.70;8.75;;;;;;;;;;4999723;28;20183;-70
2021/06/19 08:09:19;;;;;;;11.15;10.18;;;;;;;;;;4993167;28;20174;-70
2021/06/19 08:11:45;;;;;;;10.38;9.48;;;;;;;;;;5002344;28;20273;-69
2021/06/19 08:14:11;;;;;;;11.43;9.70;;;;;;;;;;4991915;28;20222;-70
2021/06/19 08:16:36;;;;;;;11.05;9.98;;;;;;;;;;5005194;28;20218;-68
2021/06/19 08:19:02;;;;;;;11.82;10.35;;;;;;;;;;5011037;28;20750;-67
2021/06/19 08:21:27;;;;;;;11.90;8.68;;;;;;;;;;4305007;28;10000797;-70
2021/06/19 08:23:53;;;;;;;10.98;9.88;;;;;;;;;;4993343;28;20609;-67
2021/06/19 08:26:18;;;;;;;10.85;9.85;;;;;;;;;;5003602;28;20566;-69
2021/06/19 08:28:43;;;;;;;8.98;8.18;;;;;;;;;;4993403;28;20229;-68
2021/06/19 08:31:09;;;;;;;8.35;7.55;;;;;;;;;;4999992;28;20214;-69
2021/06/19 08:33:34;;;;;;;10.63;9.52;;;;;;;;;;4999950;28;20211;-68
2021/06/19 08:35:59;;;;;;;10.88;9.88;;;;;;;;;;4993172;28;20289;-70
2021/06/19 08:38:25;;;;;;;11.40;10.23;;;;;;;;;;4997961;28;20193;-72
2021/06/19 08:40:51;;;;;;;12.18;10.30;;;;;;;;;;4995263;28;20249;-68
2021/06/19 08:43:18;;;;;;;10.10;9.20;;;;;;;;;;5005436;28;20658;-69
2021/06/19 08:45:45;;;;;;;11.25;10.15;;;;;;;;;;4991643;28;20245;-66
2021/06/19 08:48:11;;;;;;;13.70;10.98;;;;;;;;;;5004671;28;20234;-67
2021/06/19 08:50:39;;;;;;;13.10;11.23;;;;;;;;;;4998862;28;20193;-68
2021/06/19 08:53:04;;;;;;;12.55;11.35;;;;;;;;;;5002818;28;20191;-70
2021/06/19 08:55:30;;;;;;;14.25;12.05;;;;;;;;;;5014264;28;20225;-68
2021/06/19 08:57:55;;;;;;;12.40;11.13;;;;;;;;;;5007060;28;20203;-68
2021/06/19 09:00:21;;;;;;;12.80;10.43;;;;;;;;;;5003018;28;20650;-70
2021/06/19 09:02:48;;;;;;;11.90;10.73;;;;;;;;;;5000660;28;20198;-68
2021/06/19 09:05:17;;;;;;;12.15;10.13;;;;;;;;;;5009813;28;20187;-67
2021/06/19 09:07:48;;;;;;;10.85;9.75;;;;;;;;;;4997465;28;20186;-69
2021/06/19 09:10:23;;;;;;;11.63;10.52;;;;;;;;;;5006326;28;20183;-68
2021/06/19 09:13:05;;;;;;;11.25;10.10;;;;;;;;;;4997770;28;20187;-70
2021/06/19 09:15:34;;;;;;;11.07;9.70;;;;;;;;;;5011823;28;20484;-69
2021/06/19 09:18:10;;;;;;;10.77;9.15;;;;;;;;;;4999409;28;20179;-68
2021/06/19 09:20:52;;;;;;;9.77;8.77;;;;;;;;;;5006843;28;20222;-68
2021/06/19 09:23:27;;;;;;;12.90;9.70;;;;;;;;;;4996560;28;20277;-68
2021/06/19 09:26:15;;;;;;;11.02;8.80;;;;;;;;;;5009899;28;20192;-70
2021/06/19 09:29:15;;;;;;;9.30;8.45;;;;;;;;;;4999996;28;20228;-67
2021/06/19 09:31:48;;;;;;;12.70;9.85;;;;;;;;;;5006391;28;20186;-69
2021/06/19 09:34:23;;;;;;;13.40;9.43;;;;;;;;;;4993695;28;20195;-68
2021/06/19 09:36:58;;;;;;;10.95;7.95;;;;;;;;;;5004171;28;20194;-68
2021/06/19 09:39:26;;;;;;;9.93;8.90;;;;;;;;;;4997137;28;20219;-69
2021/06/19 09:41:55;;;;;;;13.90;12.50;;;;;;;;;;5004424;28;20191;-68
2021/06/19 09:44:34;;;;;;;17.23;14.38;;;;;;;;;;4995836;28;20553;-68
2021/06/19 09:47:00;;;;;;;14.98;13.40;;;;;;;;;;5002574;28;20202;-68
2021/06/19 09:49:33;;;;;;;13.73;12.32;;;;;;;;;;4999719;28;20709;-68
2021/06/19 09:51:59;;;;;;;15.23;12.85;;;;;;;;;;5004889;28;20620;-68
2021/06/19 09:54:24;;;;;;;13.32;11.48;;;;;;;;;;4996164;28;20191;-68
2021/06/19 09:56:59;;;;;;;13.75;11.73;;;;;;;;;;4659813;28;10000126;-70
2021/06/19 09:59:24;;;;;;;12.43;11.05;;;;;;;;;;4996070;28;20214;-67
2021/06/19 10:01:50;;;;;;;15.73;12.65;;;;;;;;;;5002022;28;20961;-67
2021/06/19 10:04:19;;;;;;;13.15;11.85;;;;;;;;;;4996307;28;20218;-68
2021/06/19 10:06:46;;;;;;;15.98;11.75;;;;;;;;;;5003034;28;20194;-68
2021/06/19 10:09:14;;;;;;;14.63;13.13;;;;;;;;;;4994296;28;20174;-68
2021/06/19 10:11:40;;;;;;;12.27;10.68;;;;;;;;;;5003468;28;20191;-73
2021/06/19 10:14:09;;;;;;;13.35;11.70;;;;;;;;;;5002127;28;20193;-72
2021/06/19 10:16:40;;;;;;;14.30;12.90;;;;;;;;;;4992921;28;20186;-69
2021/06/19 10:19:05;;;;;;;13.27;11.93;;;;;;;;;;5006397;28;20582;-69
2021/06/19 10:21:31;;;;;;;11.63;9.70;;;;;;;;;;4997500;28;20222;-71
2021/06/19 10:23:57;;;;;;;10.65;9.65;;;;;;;;;;5004764;28;20226;-70
2021/06/19 10:26:24;;;;;;;11.45;10.25;;;;;;;;;;4997634;28;20187;-69
2021/06/19 10:28:52;;;;;;;12.32;10.98;;;;;;;;;;5001701;28;20179;-71
2021/06/19 10:31:18;;;;;;;13.68;11.70;;;;;;;;;;4996528;28;20249;-68
2021/06/19 10:33:44;;;;;;;12.55;11.25;;;;;;;;;;4653873;28;9999890;-70
2021/06/19 10:36:12;;;;;;;12.85;11.13;;;;;;;;;;4989268;28;20221;-68
2021/06/19 10:38:57;;;;;;;11.65;10.45;;;;;;;;;;5002641;28;20214;-71
2021/06/19 10:41:42;;;;;;;12.15;10.38;;;;;;;;;;4992584;28;20198;-73
2021/06/19 10:44:08;;;;;;;13.23;11.85;;;;;;;;;;4994205;28;20195;-70
2021/06/19 10:46:36;;;;;;;12.20;10.30;;;;;;;;;;4991299;28;20219;-69
2021/06/19 10:49:23;;;;;;;10.80;9.70;;;;;;;;;;4994669;28;20242;-68
2021/06/19 10:51:49;;;;;;;11.98;9.82;;;;;;;;;;4992731;28;20550;-69
2021/06/19 10:54:21;;;;;;;16.30;12.13;;;;;;;;;;4998063;28;20209;-68
2021/06/19 10:56:56;;;;;;;11.88;9.77;;;;;;;;;;4991772;28;20198;-68
2021/06/19 10:59:23;;;;;;;11.20;10.18;;;;;;;;;;5000274;28;20255;-70
2021/06/19 11:01:50;;;;;;;12.05;10.00;;;;;;;;;;4993344;28;20206;-76
2021/06/19 11:04:41;;;;;;;12.68;10.68;;;;;;;;;;5002189;28;20187;-70
2021/06/19 11:07:08;;;;;;;13.57;10.80;;;;;;;;;;4991203;28;20273;-69
2021/06/19 11:09:41;;;;;;;12.52;11.30;;;;;;;;;;4996115;28;20187;-68
2021/06/19 11:12:22;;;;;;;15.00;12.48;;;;;;;;;;4990099;28;20210;-73
2021/06/19 11:14:56;;;;;;;13.32;11.43;;;;;;;;;;4997755;28;20187;-72
2021/06/19 11:17:21;;;;;;;13.10;10.85;;;;;;;;;;4993489;28;20209;-69
2021/06/19 11:20:05;;;;;;;16.27;12.38;;;;;;;;;;4997178;28;20654;-71
2021/06/19 11:22:52;;;;;;;14.05;12.25;;;;;;;;;;4999028;28;20612;-68
2021/06/19 11:25:38;;;;;;;14.68;13.07;;;;;;;;;;4998759;28;20197;-69
2021/06/19 11:28:09;;;;;;;15.88;14.23;;;;;;;;;;4994552;28;20695;-70
2021/06/19 11:30:35;;;;;;;15.45;13.63;;;;;;;;;;5001361;28;20670;-69
2021/06/19 11:33:25;;;;;;;17.63;13.98;;;;;;;;;;4997624;28;20194;-69
2021/06/19 11:35:53;;;;;;;15.18;13.30;;;;;;;;;;4999939;28;20635;-73
2021/06/19 11:38:20;;;;;;;17.67;15.10;;;;;;;;;;4996434;28;20195;-70
2021/06/19 11:40:47;;;;;;;18.33;15.07;;;;;;;;;;4989297;28;20217;-72
2021/06/19 11:43:13;;;;;;;20.38;14.98;;;;;;;;;;4998656;28;20183;-73
2021/06/19 11:45:40;;;;;;;19.92;15.40;;;;;;;;;;4994756;28;20680;-69
2021/06/19 11:48:14;;;;;;;18.73;14.95;;;;;;;;;;4999722;28;20226;-69
2021/06/19 11:50:45;;;;;;;18.27;13.75;;;;;;;;;;4987426;28;20199;-73
2021/06/19 11:53:27;;;;;;;18.70;14.20;;;;;;;;;;5002318;28;20182;-70
2021/06/19 11:56:09;;;;;;;17.50;15.00;;;;;;;;;;4989627;28;20280;-68
2021/06/19 11:58:41;;;;;;;18.42;14.65;;;;;;;;;;4997851;28;20179;-69
2021/06/19 12:01:06;;;;;;;19.42;15.55;;;;;;;;;;4985830;28;20214;-74
2021/06/19 12:03:31;;;;;;;17.80;15.73;;;;;;;;;;4991193;28;20198;-73
2021/06/19 12:05:57;;;;;;;20.75;15.90;;;;;;;;;;4980535;28;20198;-69
2021/06/19 12:08:26;;;;;;;17.52;15.73;;;;;;;;;;4993116;28;20471;-74
2021/06/19 12:10:52;;;;;;;35.45;15.95;;;;;;;;;;4988316;28;20200;-71
2021/06/19 12:13:32;;;;;;;18.88;14.88;;;;;;;;;;4998904;28;20183;-70
2021/06/19 12:15:59;;;;;;;18.33;15.50;;;;;;;;;;4988981;28;20186;-70
2021/06/19 12:18:25;;;;;;;17.73;15.88;;;;;;;;;;4997236;28;20277;-69
2021/06/19 12:21:09;;;;;;;22.10;16.38;;;;;;;;;;4991240;28;20214;-70
2021/06/19 12:23:39;;;;;;;16.17;14.45;;;;;;;;;;5018520;28;20190;-71
2021/06/19 12:26:16;;;;;;;19.10;15.63;;;;;;;;;;4995030;28;20284;-69
2021/06/19 12:28:44;;;;;;;15.98;14.27;;;;;;;;;;4994157;28;20205;-70
2021/06/19 12:31:10;;;;;;;17.90;16.05;;;;;;;;;;4999342;28;20195;-69
2021/06/19 12:33:35;;;;;;;18.95;16.67;;;;;;;;;;4999779;28;20195;-69
2021/06/19 12:36:04;;;;;;;17.45;15.65;;;;;;;;;;5002810;28;20194;-71
2021/06/19 12:38:30;;;;;;;17.95;16.15;;;;;;;;;;4997641;28;20187;-70
2021/06/19 12:40:57;;;;;;;20.00;17.10;;;;;;;;;;5002849;28;20690;-73
2021/06/19 12:43:23;;;;;;;17.92;16.02;;;;;;;;;;4993795;28;20221;-74
2021/06/19 12:45:50;;;;;;;15.68;14.00;;;;;;;;;;5000081;28;20761;-74
2021/06/19 12:48:22;;;;;;;17.63;15.55;;;;;;;;;;4996439;28;20706;-74
2021/06/19 12:50:49;;;;;;;17.08;15.35;;;;;;;;;;5003392;28;20618;-70
2021/06/19 12:53:16;;;;;;;15.85;14.13;;;;;;;;;;4996881;28;20624;-69
2021/06/19 12:56:03;;;;;;;18.65;16.35;;;;;;;;;;5003316;28;20222;-69
2021/06/19 12:58:34;;;;;;;17.83;16.10;;;;;;;;;;4992909;28;20226;-72
2021/06/19 13:00:59;;;;;;;19.30;17.13;;;;;;;;;;5001354;28;20223;-71
2021/06/19 13:03:42;;;;;;;18.10;16.20;;;;;;;;;;4990201;28;20192;-72
2021/06/19 13:06:13;;;;;;;17.42;15.60;;;;;;;;;;5001545;28;20643;-68
2021/06/19 13:08:39;;;;;;;15.93;14.30;;;;;;;;;;4990083;28;20657;-73
2021/06/19 13:11:37;;;;;;;16.92;15.18;;;;;;;;;;4997347;28;20205;-70
2021/06/19 13:14:08;;;;;;;16.75;14.70;;;;;;;;;;4982367;28;20209;-69
2021/06/19 13:16:39;;;;;;;15.52;13.73;;;;;;;;;;4996756;28;20192;-73
2021/06/19 13:19:08;;;;;;;17.20;15.48;;;;;;;;;;4992201;28;20198;-74
2021/06/19 13:21:37;;;;;;;15.00;13.50;;;;;;;;;;5016377;28;21371;-72
2021/06/19 13:24:40;;;;;;;14.23;12.93;;;;;;;;;;4990552;28;20209;-70
2021/06/19 13:27:12;;;;;;;17.00;14.77;;;;;;;;;;5002177;28;20286;-73
2021/06/19 13:29:40;;;;;;;14.95;13.55;;;;;;;;;;4993479;28;20187;-70
2021/06/19 13:32:07;;;;;;;17.27;15.52;;;;;;;;;;4999633;28;20187;-73
2021/06/19 13:34:33;;;;;;;16.38;14.77;;;;;;;;;;4992262;28;20191;-73
2021/06/19 13:37:02;;;;;;;16.98;15.38;;;;;;;;;;5001876;28;20633;-70
2021/06/19 13:39:35;;;;;;;18.67;16.95;;;;;;;;;;5000047;28;20297;-69
2021/06/19 13:42:03;;;;;;;16.92;15.25;;;;;;;;;;4999238;28;20966;-76
2021/06/19 13:44:40;;;;;;;17.30;15.25;;;;;;;;;;4999453;28;20672;-70
2021/06/19 13:47:08;;;;;;;18.75;16.85;;;;;;;;;;4991453;28;20282;-69
2021/06/19 13:49:34;;;;;;;18.70;16.80;;;;;;;;;;4995456;28;20659;-68
2021/06/19 13:52:05;;;;;;;18.73;16.90;;;;;;;;;;4995302;28;20191;-67
2021/06/19 13:54:40;;;;;;;22.50;17.08;;;;;;;;;;5000787;28;20232;-68
2021/06/19 13:57:07;;;;;;;20.02;18.02;;;;;;;;;;4993402;28;20190;-69
2021/06/19 13:59:36;;;;;;;18.63;16.63;;;;;;;;;;5002102;28;20202;-68
2021/06/19 14:02:02;;;;;;;17.40;15.68;;;;;;;;;;4989737;28;20214;-70
2021/06/19 14:04:29;;;;;;;18.13;16.33;;;;;;;;;;4997414;28;20864;-74
2021/06/19 14:06:55;;;;;;;16.65;14.95;;;;;;;;;;4992241;28;20680;-71
2021/06/19 14:09:21;;;;;;;16.80;15.10;;;;;;;;;;4997476;28;20651;-70
2021/06/19 14:11:46;;;;;;;16.75;15.15;;;;;;;;;;4994722;28;20258;-69
2021/06/19 14:14:12;;;;;;;19.05;17.02;;;;;;;;;;5003489;28;20206;-68
2021/06/19 14:16:38;;;;;;;18.20;16.25;;;;;;;;;;4991347;28;20254;-73
2021/06/19 14:19:03;;;;;;;21.50;19.50;;;;;;;;;;4998610;28;20186;-70
2021/06/19 14:21:29;;;;;;;20.83;17.90;;;;;;;;;;4999502;28;20194;-69
2021/06/19 14:23:54;;;;;;;17.95;16.25;;;;;;;;;;4993283;28;20186;-71
2021/06/19 14:26:22;;;;;;;18.77;16.92;;;;;;;;;;4998038;28;20195;-73